Latest Weather Observations for King Island Airport

IDT60801

Issued at 12:32 pm EST Thursday 28 July 2016 (issued every 30 minutes, with the page automatically refreshed every 10 minutes)

About weather observations | Map of weather stations | Latest weather observations for TAS | Other Formats
Station Details ID: 098017 Name: KING ISLAND AIRPORT Lat: -39.88 Lon: 143.88 Height: 37.0 m
Data from the previous 72 hours. | See also: Recent months at King Island Airport
Date/Time
EST
Temp
°C
App
Temp
°C
Dew
Point
°C
Rel
Hum
%
Delta-T
°C
Wind Press
QNH
hPa
Press
MSL
hPa
Rain since
9am
mm
Dir  Spd
km/h
Gust
km/h
Spd
kts
Gust
kts
28/12:30pm 11.8 4.6 10.4 91 0.7 W 39 56 21 30 1019.0 1019.0 0.2
28/12:20pm 12.0 5.5 10.4 90 0.8 W 35 54 19 29 1019.0 1019.0 0.2
28/12:14pm 12.2 5.8 10.6 90 0.8 W 35 52 19 28 1019.0 1019.0 0.2
28/12:00pm 12.3 6.3 10.7 90 0.8 W 33 52 18 28 1019.1 1019.1 0.2
28/11:33am 12.3 6.1 10.0 86 1.2 W 33 57 18 31 1019.4 1019.4 0.2
28/11:30am 12.1 5.8 9.7 85 1.2 W 33 50 18 27 1019.4 1019.4 0.0
28/11:10am 11.6 5.2 9.5 87 1.1 W 33 52 18 28 1019.5 1019.5 0.0
28/11:00am 11.6 3.7 9.2 85 1.2 W 41 56 22 30 1019.6 1019.6 0.0
28/10:30am 11.9 4.8 9.5 85 1.2 W 37 56 20 30 1019.4 1019.4 0.0
28/10:00am 11.3 4.4 8.9 85 1.2 W 35 56 19 30 1019.2 1019.2 0.0
28/09:51am 11.6 4.7 8.8 83 1.4 W 35 54 19 29 1019.1 1019.1 0.0
28/09:30am 11.9 5.4 8.2 78 1.8 W 32 48 17 26 1019.2 1019.2 0.0
28/09:00am 12.0 4.6 8.5 79 1.7 W 37 52 20 28 1019.1 1019.1 1.8
28/08:34am 12.0 5.0 8.3 78 1.8 W 35 56 19 30 1018.9 1018.9 1.8
28/08:30am 11.9 4.4 8.0 77 1.9 W 37 52 20 28 1018.9 1018.9 1.8
28/08:00am 11.7 5.0 8.0 78 1.8 W 33 46 18 25 1018.7 1018.7 1.8
28/07:30am 11.5 3.9 7.4 76 2.0 W 37 57 20 31 1018.5 1018.5 1.8
28/07:00am 11.8 4.6 7.5 75 2.1 W 35 54 19 29 1018.2 1018.2 1.8
28/06:46am 11.8 4.2 7.7 76 2.0 W 37 56 20 30 1018.1 1018.1 1.8
28/06:30am 11.7 4.6 8.0 78 1.8 W 35 50 19 27 1017.9 1017.9 1.8
28/06:26am 11.8 4.8 8.3 79 1.7 W 35 54 19 29 1017.9 1017.9 1.8
28/06:00am 11.6 4.2 8.5 81 1.5 W 37 50 20 27 1017.8 1017.8 1.8
28/05:30am 11.9 4.0 8.0 77 1.9 W 39 54 21 29 1017.6 1017.6 1.8
28/05:15am 11.9 3.7 8.2 78 1.8 W 41 59 22 32 1017.4 1017.4 1.8
28/05:00am 11.7 3.8 7.8 77 1.9 W 39 54 21 29 1017.2 1017.2 1.8
28/04:30am 11.9 4.2 8.6 80 1.6 W 39 56 21 30 1017.3 1017.3 1.8
28/04:03am 11.6 3.6 9.0 84 1.3 W 41 59 22 32 1017.2 1017.2 1.8
28/04:00am 11.6 3.3 9.2 85 1.2 W 43 59 23 32 1017.2 1017.2 1.8
28/03:55am 11.5 4.4 9.6 88 1.0 W 37 56 20 30 1017.2 1017.2 1.8
28/03:43am 11.6 5.1 10.2 91 0.7 W 35 52 19 28 1017.3 1017.3 1.8
28/03:30am 11.3 5.3 10.0 92 0.7 W 32 44 17 24 1017.3 1017.3 1.8
28/03:26am 11.5 5.6 10.4 93 0.6 W 32 44 17 24 1017.3 1017.3 1.8
28/03:00am 11.1 3.3 9.9 92 0.6 W 41 56 22 30 1017.5 1017.5 1.6
28/02:50am 11.6 5.4 10.2 91 0.7 W 33 52 18 28 1017.5 1017.5 1.6
28/02:49am 11.7 5.2 10.3 91 0.7 W 35 52 19 28 1017.5 1017.5 1.6
28/02:38am 11.6 4.2 10.0 90 0.8 W 39 59 21 32 1017.5 1017.5 1.6
28/02:30am 11.1 3.6 9.5 90 0.8 W 39 56 21 30 1017.5 1017.5 1.6
28/02:18am 11.6 4.9 9.7 88 1.0 W 35 56 19 30 1017.5 1017.5 1.6
28/02:00am 11.8 5.6 9.5 86 1.2 W 32 43 17 23 1017.6 1017.6 1.6
28/01:30am 11.3 5.2 9.6 89 0.9 W 32 48 17 26 1017.4 1017.4 1.6
28/01:15am 11.8 5.4 9.4 85 1.2 W 33 54 18 29 1017.4 1017.4 1.6
28/01:00am 11.5 5.1 9.2 86 1.2 W 33 46 18 25 1017.4 1017.4 1.6
28/12:30am 11.3 4.5 9.4 88 1.0 W 35 54 19 29 1017.4 1017.4 1.6
28/12:21am 11.3 5.2 9.7 90 0.8 W 32 54 17 29 1017.4 1017.4 1.6
28/12:00am 11.1 4.3 9.2 88 0.9 W 35 50 19 27 1017.4 1017.4 1.4
 
Date/Time
EST
Temp
°C
App
Temp
°C
Dew
Point
°C
Rel
Hum
%
Delta-T
°C
Wind Press
QNH
hPa
Press
MSL
hPa
Rain since
9am
mm
Dir  Spd
km/h
Gust
km/h
Spd
kts
Gust
kts
27/11:30pm 11.3 5.0 9.6 89 0.9 W 33 57 18 31 1017.3 1017.3 1.0
27/11:20pm 11.2 4.0 9.3 88 1.0 W 37 56 20 30 1017.3 1017.3 1.0
27/11:00pm 11.5 5.1 9.2 86 1.2 W 33 50 18 27 1017.1 1017.1 1.0
27/10:30pm 11.2 4.5 9.5 89 0.9 W 35 54 19 29 1017.3 1017.3 1.0
27/10:28pm 11.4 5.1 9.8 90 0.8 W 33 54 18 29 1017.4 1017.4 1.0
27/10:21pm 11.5 4.5 10.1 91 0.7 W 37 52 20 28 1017.4 1017.4 1.0
27/10:08pm 10.9 3.0 9.5 91 0.7 WSW 41 59 22 32 1017.4 1017.4 1.0
27/10:05pm 10.9 2.6 9.3 90 0.8 W 43 59 23 32 1017.4 1017.4 1.0
27/10:00pm 11.6 3.4 9.7 88 1.0 W 43 57 23 31 1017.3 1017.3 0.8
27/09:30pm 11.3 3.7 9.2 87 1.1 W 39 63 21 34 1017.1 1017.1 0.8
27/09:06pm 12.0 4.8 9.0 82 1.5 W 37 56 20 30 1016.9 1016.9 0.8
27/09:00pm 11.8 4.2 9.0 83 1.4 W 39 56 21 30 1016.8 1016.8 0.8
27/08:42pm 11.7 4.8 8.9 83 1.4 W 35 54 19 29 1016.6 1016.6 0.8
27/08:30pm 11.8 4.5 8.6 81 1.6 W 37 52 20 28 1016.7 1016.7 0.8
27/08:00pm 11.5 3.9 9.2 86 1.2 W 39 67 21 36 1016.6 1016.6 0.8
27/07:43pm 11.0 2.7 9.3 89 0.9 W 43 74 23 40 1016.4 1016.4 0.8
27/07:37pm 11.0 3.4 9.1 88 0.9 W 39 74 21 40 1016.4 1016.4 0.6
27/07:30pm 11.1 3.2 9.2 88 0.9 WSW 41 56 22 30 1016.4 1016.4 0.6
27/07:28pm 11.2 2.8 9.1 87 1.0 WSW 43 57 23 31 1016.4 1016.4 0.6
27/07:00pm 11.0 3.3 8.6 85 1.2 W 39 57 21 31 1016.1 1016.1 0.4
27/06:45pm 11.0 3.7 8.9 87 1.0 W 37 56 20 30 1016.0 1016.0 0.4
27/06:40pm 10.9 3.2 8.8 87 1.0 W 39 56 21 30 1016.0 1016.0 0.4
27/06:32pm 10.8 2.3 8.7 87 1.0 W 43 61 23 33 1016.0 1016.0 0.4
27/06:30pm 10.8 2.2 8.9 88 0.9 W 44 61 24 33 1016.0 1016.0 0.4
27/06:25pm 10.9 2.4 8.7 86 1.1 W 43 61 23 33 1015.9 1015.9 0.4
27/06:01pm 10.8 2.7 8.6 86 1.1 W 41 61 22 33 1015.4 1015.4 0.4
27/06:00pm 10.7 2.6 8.5 86 1.1 W 41 56 22 30 1015.4 1015.4 0.4
27/05:34pm 11.2 2.4 7.3 77 1.9 W 43 61 23 33 1015.2 1015.2 0.4
27/05:30pm 11.2 2.6 6.7 74 2.1 W 41 56 22 30 1015.1 1015.1 0.4
27/05:00pm 11.0 2.8 6.4 73 2.2 W 39 57 21 31 1014.8 1014.8 0.4
27/04:41pm 10.8 2.5 6.2 73 2.1 W 39 57 21 31 1014.6 1014.6 0.4
27/04:30pm 10.8 2.2 6.4 74 2.1 W 41 57 22 31 1014.5 1014.5 0.4
27/04:06pm 10.5 2.2 5.9 73 2.1 W 39 59 21 32 1014.3 1014.3 0.4
27/04:00pm 10.4 2.1 6.0 74 2.0 W 39 54 21 29 1014.3 1014.3 0.4
27/03:40pm 10.3 2.3 5.5 72 2.2 W 37 57 20 31 1014.5 1014.5 0.4
27/03:30pm 10.2 1.2 4.8 69 2.4 W 41 56 22 30 1014.4 1014.4 0.4
27/03:00pm 9.7 1.7 5.7 76 1.8 W 37 52 20 28 1014.4 1014.4 0.2
27/02:33pm 9.2 0.7 5.2 76 1.8 W 39 57 21 31 1014.2 1014.2 0.2
27/02:30pm 9.5 0.7 5.5 76 1.8 W 41 57 22 31 1014.2 1014.2 0.2
27/02:21pm 10.0 1.4 4.4 68 2.5 W 39 57 21 31 1014.0 1014.0 0.2
27/02:00pm 10.3 2.2 5.1 70 2.4 W 37 50 20 27 1013.9 1013.9 0.2
27/01:39pm 9.5 1.3 4.9 73 2.1 W 37 56 20 30 1013.8 1013.8 0.2
27/01:30pm 9.9 2.0 4.5 69 2.4 W 35 52 19 28 1013.6 1013.6 0.2
27/01:19pm 9.4 1.9 4.2 70 2.3 W 33 52 18 28 1013.7 1013.7 0.2
27/01:00pm 9.9 2.4 4.7 70 2.3 W 33 48 18 26 1013.8 1013.8 0.2
27/12:42pm 10.6 2.5 3.2 60 3.2 W 35 56 19 30 1013.8 1013.8 0.2
27/12:30pm 9.4 1.9 3.6 67 2.5 WSW 32 43 17 23 1013.6 1013.6 0.2
27/12:23pm 9.5 2.3 5.1 74 2.0 WSW 32 50 17 27 1013.6 1013.6 0.2
27/12:00pm 9.8 2.2 4.0 67 2.6 W 33 46 18 25 1013.6 1013.6 0.2
27/11:30am 8.7 0.8 4.5 75 1.9 W 35 56 19 30 1014.0 1014.0 0.2
27/11:00am 9.1 2.0 3.3 67 2.5 WSW 30 52 16 28 1013.6 1013.6 0.0
27/10:46am 8.9 1.3 3.7 70 2.3 WSW 33 52 18 28 1013.3 1013.3 0.0
27/10:30am 10.2 3.4 3.3 62 3.0 SW 28 44 15 24 1012.9 1012.9 0.0
27/10:09am 9.4 2.7 3.6 67 2.5 SW 28 46 15 25 1012.5 1012.5 0.0
27/10:00am 9.2 4.0 3.8 69 2.4 SW 20 30 11 16 1012.4 1012.4 0.0
27/09:30am 8.7 1.5 2.9 67 2.5 SW 30 57 16 31 1012.3 1012.3 0.0
27/09:00am 9.5 2.6 2.4 61 3.0 SW 28 41 15 22 1011.7 1011.7 11.6
27/08:47am 9.3 1.4 2.2 61 3.0 SW 33 54 18 29 1011.3 1011.3 11.6
27/08:30am 9.0 1.8 3.0 66 2.6 SW 30 43 16 23 1011.1 1011.1 11.6
27/08:00am 8.9 1.0 1.1 58 3.2 SW 32 43 17 23 1009.8 1009.9 11.6
27/07:30am 8.7 0.7 0.4 56 3.3 SW 32 41 17 22 1009.2 1009.3 11.6
27/07:00am 8.2 0.3 2.0 65 2.6 SW 33 46 18 25 1008.5 1008.6 11.6
27/06:30am 7.7 -1.2 3.2 73 1.9 SSW 39 57 21 31 1007.8 1007.9 11.6
27/06:17am 8.7 1.2 3.7 71 2.2 SSW 32 50 17 27 1007.4 1007.5 11.6
27/06:00am 8.2 -0.7 3.1 70 2.2 SSW 39 52 21 28 1007.0 1007.1 11.6
27/05:30am 8.7 0.3 3.7 71 2.2 SSW 37 50 20 27 1006.2 1006.3 11.6
27/05:00am 8.8 -0.1 5.0 77 1.7 SSW 41 52 22 28 1005.5 1005.6 11.6
27/04:30am 9.1 -0.2 4.9 75 1.9 SSW 43 56 23 30 1004.8 1004.9 11.6
27/04:00am 9.2 0.9 6.3 82 1.3 SSW 39 56 21 30 1003.9 1004.0 11.6
27/03:30am 9.3 0.6 7.7 90 0.8 SW 43 54 23 29 1003.1 1003.2 11.6
27/03:02am 10.6 4.1 8.2 85 1.2 SW 32 50 17 27 1002.6 1002.7 11.4
27/03:00am 10.4 3.6 7.8 84 1.3 WSW 33 44 18 24 1002.6 1002.7 11.4
27/02:34am 10.4 4.4 8.5 88 0.9 WSW 30 48 16 26 1002.1 1002.2 11.4
27/02:30am 10.4 4.4 8.7 89 0.8 WSW 30 39 16 21 1002.0 1002.1 11.4
27/02:25am 10.2 4.9 8.5 89 0.8 WSW 26 39 14 21 1001.9 1002.0 11.4
27/02:06am 10.1 3.7 8.4 89 0.8 WNW 32 43 17 23 1001.9 1002.0 11.0
27/02:00am 10.1 3.5 8.5 90 0.8 WNW 33 43 18 23 1001.4 1001.5 9.2
27/01:53am 10.2 3.7 8.8 91 0.7 WNW 33 44 18 24 1001.4 1001.5 9.2
27/01:49am 10.3 3.4 8.9 91 0.7 WNW 35 48 19 26 1001.5 1001.6 9.2
27/01:42am 10.3 2.7 9.1 92 0.6 WNW 39 54 21 29 1001.4 1001.5 9.2
27/01:30am 10.3 1.9 8.9 91 0.7 NW 43 52 23 28 1001.0 1001.0 9.0
27/01:12am 10.5 1.5 8.8 89 0.8 NW 46 67 25 36 1001.0 1001.0 6.4
27/01:08am 10.5 1.5 8.8 89 0.8 NW 46 59 25 32 1001.1 1001.1 6.0
27/01:00am 10.6 0.8 8.7 88 0.9 NW 50 63 27 34 1001.0 1001.0 5.4
27/12:30am 10.5 1.1 8.6 88 0.9 NW 48 69 26 37 1000.7 1000.7 5.2
27/12:15am 10.6 0.8 8.5 87 1.0 NW 50 69 27 37 1000.7 1000.7 5.2
27/12:00am 10.6 -0.1 8.2 85 1.2 NW 54 65 29 35 1000.7 1000.7 5.2
 
Date/Time
EST
Temp
°C
App
Temp
°C
Dew
Point
°C
Rel
Hum
%
Delta-T
°C
Wind Press
QNH
hPa
Press
MSL
hPa
Rain since
9am
mm
Dir  Spd
km/h
Gust
km/h
Spd
kts
Gust
kts
26/11:56pm 10.7 0.1 8.3 85 1.2 NW 54 67 29 36 1000.7 1000.7 5.2
26/11:35pm 10.3 -0.4 8.1 86 1.1 NW 54 74 29 40 1000.8 1000.8 4.6
26/11:30pm 10.4 -0.3 8.0 85 1.2 NW 54 74 29 40 1000.9 1000.9 4.6
26/11:16pm 10.3 0.4 8.1 86 1.1 NW 50 69 27 37 1000.9 1000.9 4.4
26/11:00pm 10.3 -0.4 7.9 85 1.2 NW 54 67 29 36 1001.1 1001.1 4.4
26/10:41pm 9.9 -1.0 7.2 83 1.3 NNW 54 72 29 39 1001.0 1001.0 4.2
26/10:30pm 10.2 -0.7 7.3 82 1.4 NNW 54 70 29 38 1001.0 1001.0 4.2
26/10:13pm 10.4 -0.9 7.1 80 1.6 NNW 56 76 30 41 1000.9 1000.9 4.2
26/10:00pm 10.5 -1.0 7.2 80 1.6 NNW 57 74 31 40 1001.1 1001.1 4.2
26/09:39pm 10.2 -1.2 6.9 80 1.6 NNW 56 80 30 43 1001.0 1001.0 4.2
26/09:30pm 10.2 -1.7 6.9 80 1.6 NNW 59 74 32 40 1001.0 1001.0 4.2
26/09:08pm 10.2 -1.2 6.7 79 1.6 NNW 56 74 30 40 1001.2 1001.3 4.2
26/09:00pm 10.2 -1.8 6.4 77 1.8 NNW 59 74 32 40 1001.2 1001.3 4.2
26/08:30pm 9.8 -1.2 6.9 82 1.4 NNW 54 74 29 40 1001.4 1001.5 4.2
26/08:13pm 10.3 -1.1 6.8 79 1.7 NNW 56 74 30 40 1001.4 1001.5 4.2
26/08:00pm 10.3 -1.3 6.6 78 1.7 NNW 57 74 31 40 1001.4 1001.5 4.2
26/07:32pm 10.2 -0.9 6.2 76 1.9 NNW 54 74 29 40 1001.7 1001.8 4.2
26/07:30pm 10.1 -0.7 6.1 76 1.9 NNW 52 69 28 37 1001.7 1001.8 4.2
26/07:10pm 9.7 -1.3 6.8 82 1.4 NNW 54 72 29 39 1001.9 1002.0 4.2
26/07:00pm 9.9 -0.3 7.0 82 1.4 NNW 50 65 27 35 1001.9 1002.0 4.2
26/06:48pm 9.7 -0.5 6.8 82 1.4 NNW 50 69 27 37 1002.0 1002.1 4.2
26/06:30pm 10.2 -0.9 6.2 76 1.9 NW 54 67 29 36 1002.2 1002.3 4.0
26/06:09pm 9.9 -0.7 6.8 81 1.5 NW 52 70 28 38 1002.3 1002.4 4.0
26/06:00pm 9.5 -0.7 6.8 83 1.3 NW 50 65 27 35 1002.4 1002.5 3.8
26/05:30pm 8.8 -1.4 6.9 88 0.9 NNW 50 63 27 34 1002.9 1003.0 3.4
26/05:26pm 8.7 -1.6 6.7 87 0.9 NNW 50 63 27 34 1002.9 1003.0 3.4
26/05:13pm 8.6 -0.5 6.7 88 0.9 NNW 44 56 24 30 1003.1 1003.2 3.2
26/05:03pm 8.4 0.2 6.7 89 0.8 NW 39 57 21 31 1003.1 1003.2 3.2
26/05:00pm 8.4 0.6 6.7 89 0.8 NW 37 48 20 26 1003.2 1003.3 3.0
26/04:58pm 8.5 0.7 6.8 89 0.8 NW 37 48 20 26 1003.3 1003.4 3.0
26/04:36pm 8.4 -1.3 5.7 83 1.2 NNW 46 59 25 32 1003.4 1003.5 1.2
26/04:30pm 9.3 0.0 5.7 78 1.6 NNW 44 57 24 31 1003.3 1003.4 0.6
26/04:00pm 9.4 0.2 5.6 77 1.7 NNW 43 56 23 30 1003.6 1003.7 0.6
26/03:30pm 8.8 1.2 5.7 81 1.4 NNW 35 48 19 26 1004.1 1004.2 0.6
26/03:00pm 8.6 -0.1 4.2 74 1.9 NNW 39 50 21 27 1004.4 1004.5 0.6
26/02:37pm 8.3 -0.6 3.2 70 2.2 NW 39 57 21 31 1005.0 1005.1 0.4
26/02:30pm 8.4 -0.7 4.0 74 1.9 NNW 41 56 22 30 1005.0 1005.1 0.4
26/02:14pm 8.3 0.2 5.2 81 1.4 NW 37 56 20 30 1005.2 1005.3 0.4
26/02:00pm 8.8 1.1 5.2 78 1.6 NW 35 46 19 25 1005.4 1005.5 0.4
26/01:36pm 7.4 -0.4 4.7 83 1.2 WNW 35 50 19 27 1005.9 1006.0 0.4
26/01:30pm 7.5 -1.8 4.8 83 1.2 WNW 43 61 23 33 1006.2 1006.3 0.0
26/01:14pm 8.5 2.4 4.7 77 1.7 WNW 26 59 14 32 1006.0 1006.1 0.0
26/01:04pm 8.8 2.4 5.0 77 1.7 W 28 46 15 25 1005.8 1005.9 0.0
26/01:00pm 8.7 1.5 4.9 77 1.7 W 32 46 17 25 1005.9 1006.0 0.0
26/12:51pm 8.7 -0.5 3.7 71 2.2 WNW 41 52 22 28 1006.1 1006.2 0.0
26/12:30pm 10.6 0.9 2.7 58 3.4 NW 43 50 23 27 1006.1 1006.2 0.0
26/12:17pm 10.3 3.3 4.0 65 2.8 WNW 30 50 16 27 1006.3 1006.4 0.0
26/12:00pm 10.6 2.5 3.2 60 3.2 WNW 35 46 19 25 1006.7 1006.8 0.0
26/11:30am 9.6 1.6 3.8 67 2.5 W 35 50 19 27 1007.1 1007.2 0.0
26/11:00am 10.9 3.1 1.7 53 3.9 WNW 32 43 17 23 1007.1 1007.2 0.0
26/10:30am 10.8 2.5 1.9 54 3.8 WNW 35 50 19 27 1007.0 1007.1 0.0
26/10:00am 10.2 2.5 2.1 57 3.4 W 32 44 17 24 1006.9 1007.0 0.0
26/09:30am 9.5 2.0 1.2 56 3.4 W 30 43 16 23 1006.6 1006.7 0.0
26/09:00am 9.2 1.5 2.5 63 2.8 W 32 43 17 23 1006.5 1006.6 14.4
26/08:30am 9.3 1.0 1.9 60 3.1 W 35 48 19 26 1006.4 1006.5 14.4
26/08:00am 9.0 0.7 2.3 63 2.8 WSW 35 48 19 26 1006.3 1006.4 14.4
26/07:31am 8.7 -0.7 0.2 55 3.4 W 39 57 21 31 1006.2 1006.3 14.4
26/07:30am 8.7 -0.7 0.2 55 3.4 W 39 56 21 30 1006.2 1006.3 14.4
26/07:01am 8.5 -1.0 -0.5 53 3.5 W 39 57 21 31 1006.0 1006.1 14.4
26/07:00am 8.5 -1.0 -0.5 53 3.5 W 39 56 21 30 1006.0 1006.1 14.4
26/06:30am 8.5 -1.4 1.4 61 2.9 W 43 63 23 34 1005.7 1005.8 14.4
26/06:00am 8.6 -1.7 0.3 56 3.3 WSW 44 67 24 36 1005.3 1005.4 14.4
26/05:31am 8.3 -1.6 1.5 62 2.8 W 43 61 23 33 1004.9 1005.0 14.4
26/05:30am 8.4 -1.7 1.8 63 2.7 WSW 44 61 24 33 1004.9 1005.0 14.4
26/05:00am 7.7 -1.8 1.8 66 2.4 W 41 67 22 36 1004.5 1004.6 14.4
26/04:37am 8.4 -2.2 3.1 69 2.3 WSW 48 89 26 48 1004.4 1004.5 14.2
26/04:30am 8.8 -1.0 2.4 64 2.7 W 43 61 23 33 1004.0 1004.1 14.2
26/04:01am 8.9 -1.1 1.1 58 3.2 W 43 61 23 33 1003.6 1003.7 14.2
26/04:00am 8.7 -1.3 1.1 59 3.1 W 43 59 23 32 1003.6 1003.7 14.2
26/03:43am 7.7 -3.5 1.8 66 2.4 W 50 87 27 47 1003.6 1003.7 14.2
26/03:38am 7.7 -4.5 0.4 60 2.9 W 54 87 29 47 1003.6 1003.7 14.2
26/03:30am 8.9 -1.2 1.3 59 3.1 WSW 44 70 24 38 1003.3 1003.4 14.2
26/03:00am 8.4 -1.7 1.8 63 2.7 W 44 63 24 34 1003.2 1003.3 14.2
26/02:30am 8.5 -1.8 2.7 67 2.4 W 46 65 25 35 1003.1 1003.2 14.2
26/02:00am 7.5 -3.5 3.2 74 1.8 WSW 50 78 27 42 1002.7 1002.8 14.2
26/01:30am 7.5 -3.1 3.0 73 1.9 W 48 70 26 38 1002.4 1002.5 14.2
26/01:02am 8.3 -1.3 3.2 70 2.2 W 43 61 23 33 1001.9 1002.0 14.2
26/01:00am 8.1 -1.8 3.0 70 2.2 W 44 61 24 33 1001.8 1001.9 14.2
26/12:30am 8.8 -2.8 1.7 61 2.9 W 52 76 28 41 1001.6 1001.7 14.2
26/12:00am 8.6 -2.5 2.4 65 2.6 W 50 70 27 38 1001.4 1001.5 14.2
 
Date/Time
EST
Temp
°C
App
Temp
°C
Dew
Point
°C
Rel
Hum
%
Delta-T
°C
Wind Press
QNH
hPa
Press
MSL
hPa
Rain since
9am
mm
Dir  Spd
km/h
Gust
km/h
Spd
kts
Gust
kts
25/11:30pm 7.4 -4.7 3.1 74 1.8 W 56 78 30 42 1001.3 1001.4 14.2
25/11:00pm 8.4 -2.6 3.1 69 2.3 W 50 72 27 39 1000.9 1000.9 14.0
25/10:30pm 8.8 -1.7 3.8 71 2.2 W 48 70 26 38 1000.5 1000.5 14.0
25/10:00pm 8.6 -1.6 3.4 70 2.3 W 46 69 25 37 1000.3 1000.3 14.0
25/09:45pm 7.3 -4.3 1.8 68 2.2 W 52 87 28 47 1000.2 1000.2 14.0
25/09:42pm 7.0 -5.5 1.9 70 2.1 W 57 87 31 47 1000.2 1000.2 14.0
25/09:37pm 7.5 -5.6 2.8 72 2.0 W 61 87 33 47 1000.1 1000.1 14.0
25/09:30pm 9.2 -1.8 0.9 56 3.4 W 48 78 26 42 999.6 999.6 14.0
25/09:01pm 8.2 -2.6 3.9 74 1.9 W 50 70 27 38 999.6 999.6 14.0
25/09:00pm 8.2 -2.6 3.9 74 1.9 W 50 70 27 38 999.6 999.6 14.0
25/08:59pm 8.3 -2.6 3.6 72 2.0 W 50 70 27 38 999.6 999.6 14.0
25/08:30pm 8.8 -1.4 3.2 68 2.4 W 46 67 25 36 999.0 999.0 14.0
25/08:00pm 9.6 -1.9 2.5 61 3.0 W 52 76 28 41 998.6 998.6 14.0
25/07:30pm 8.9 -2.5 2.7 65 2.6 W 52 78 28 42 997.9 997.9 14.0
25/07:23pm 9.0 -1.3 4.6 74 2.0 W 48 72 26 39 997.8 997.8 14.0
25/07:04pm 7.5 -4.1 4.1 79 1.5 W 54 72 29 39 997.8 997.8 13.8
25/07:00pm 9.7 -0.7 4.3 69 2.4 WNW 48 72 26 39 997.5 997.5 13.2
25/06:34pm 8.6 -2.8 2.8 67 2.5 W 52 76 28 41 997.2 997.2 13.2
25/06:30pm 8.1 -2.9 3.2 71 2.1 W 50 72 27 39 997.1 997.1 13.2
25/06:16pm 7.3 -4.6 4.3 81 1.3 W 56 87 30 47 997.3 997.3 13.0
25/06:00pm 9.1 -2.4 4.3 72 2.1 W 54 80 29 43 996.6 996.6 12.6
25/05:48pm 8.9 -2.3 6.0 82 1.3 W 54 76 29 41 996.4 996.4 12.6
25/05:30pm 8.7 -2.2 7.2 90 0.7 W 54 72 29 39 996.1 996.1 12.2
25/05:28pm 8.8 -2.1 7.1 89 0.8 WNW 54 72 29 39 996.2 996.2 12.0
25/05:27pm 8.7 -2.7 6.8 88 0.9 WNW 56 72 30 39 996.2 996.2 12.0
25/05:21pm 9.5 -1.7 7.4 87 1.0 WNW 56 72 30 39 995.6 995.6 11.6
25/05:00pm 8.3 -3.1 6.9 91 0.7 WNW 56 93 30 50 996.0 996.0 11.0
25/04:44pm 10.3 -0.8 8.9 91 0.7 NW 57 76 31 41 995.1 995.1 8.8
25/04:39pm 10.0 -0.2 8.4 90 0.8 NW 52 72 28 39 994.8 994.8 8.4
25/04:30pm 9.8 0.0 8.6 92 0.6 NW 50 63 27 34 994.9 994.9 8.4
25/04:27pm 9.5 -0.4 8.4 93 0.5 NW 50 63 27 34 994.7 994.7 8.4
25/04:15pm 8.5 -2.7 7.4 93 0.5 NW 56 80 30 43 995.1 995.1 8.2
25/04:00pm 8.7 -5.2 7.3 91 0.7 NW 70 96 38 52 996.1 996.1 6.4
25/03:54pm 10.1 -3.9 8.4 89 0.8 NNW 72 96 39 52 995.9 995.9 4.8
25/03:51pm 9.8 -3.7 8.1 89 0.8 NNW 69 96 37 52 995.7 995.7 4.4
25/03:33pm 10.8 -0.6 8.9 88 0.9 NNW 59 80 32 43 995.5 995.5 2.4
25/03:30pm 11.1 0.0 8.8 86 1.1 NNW 57 80 31 43 995.5 995.5 2.2
25/03:19pm 11.2 2.0 8.1 81 1.5 N 46 67 25 36 995.4 995.4 1.8
25/03:00pm 10.6 1.4 7.8 83 1.4 NNW 46 63 25 34 996.2 996.2 1.6
25/02:31pm 11.3 1.2 7.2 76 2.0 NNW 50 69 27 37 997.1 997.1 1.2
25/02:30pm 11.3 0.8 7.2 76 2.0 NNW 52 69 28 37 997.2 997.2 1.2
25/02:03pm 11.4 1.1 8.1 80 1.6 NNW 52 70 28 38 998.0 998.0 1.2
25/02:00pm 11.4 1.5 8.1 80 1.6 NNW 50 67 27 36 998.1 998.1 1.2
25/01:38pm 11.3 1.1 8.5 83 1.4 NNW 52 67 28 36 998.6 998.6 1.2
25/01:30pm 10.7 2.6 8.8 88 0.9 NW 41 65 22 35 998.9 998.9 1.2
25/01:21pm 10.2 2.7 8.1 87 1.0 NNW 37 56 20 30 999.4 999.4 1.2
25/01:18pm 10.7 2.9 8.3 85 1.2 NNW 39 54 21 29 999.6 999.6 1.0
25/01:00pm 11.8 2.7 8.5 80 1.6 NNW 46 59 25 32 999.9 999.9 0.2
25/12:46pm 11.6 3.0 8.3 80 1.6 NW 43 56 23 30 1000.5 1000.5 0.2

Other Formats:

Comma delimited format used in spreadsheet applications
http://www.bom.gov.au/fwo/IDT60801/IDT60801.94850.axf

JavaScript Object Notation format (JSON) in row-major order
http://www.bom.gov.au/fwo/IDT60801/IDT60801.94850.json